createdAt,value
2022-08-05T00:00:16.159Z,23.47
2022-08-05T00:02:33.841Z,23.51
2022-08-05T00:04:55.370Z,23.51
2022-08-05T00:07:27.490Z,23.59
2022-08-05T00:09:50.831Z,23.48
2022-08-05T00:12:07.865Z,23.42
2022-08-05T00:14:31.538Z,23.43
2022-08-05T00:16:53.044Z,23.41
2022-08-05T00:19:10.787Z,23.41
2022-08-05T00:21:30.522Z,23.46
2022-08-05T00:23:53.595Z,23.35
2022-08-05T00:26:24.592Z,23.33
2022-08-05T00:28:41.573Z,23.31
2022-08-05T00:31:04.101Z,23.32
2022-08-05T00:34:54.740Z,23.28
2022-08-05T00:36:16.281Z,23.41
2022-08-05T00:38:37.635Z,23.32
2022-08-05T00:40:54.602Z,23.22
2022-08-05T00:43:11.869Z,23.23
2022-08-05T00:45:38.294Z,23.19
2022-08-05T00:48:05.910Z,23.12
2022-08-05T00:50:25.477Z,23.06
2022-08-05T00:52:45.409Z,22.95
2022-08-05T00:55:03.842Z,23.00
2022-08-05T00:57:21.204Z,22.97
2022-08-05T00:59:44.529Z,22.98
2022-08-05T01:02:02.518Z,23.03
2022-08-05T01:04:20.254Z,22.95
2022-08-05T01:06:48.486Z,22.90
2022-08-05T01:09:06.983Z,22.89
2022-08-05T01:11:37.057Z,22.88
2022-08-05T01:13:59.045Z,22.86
2022-08-05T01:16:21.055Z,22.80
2022-08-05T01:18:43.412Z,22.81
2022-08-05T01:21:05.779Z,22.73
2022-08-05T01:23:23.569Z,22.80
2022-08-05T01:25:41.637Z,22.69
2022-08-05T01:27:59.064Z,22.67
2022-08-05T01:30:18.727Z,22.63
2022-08-05T01:32:36.120Z,22.69
2022-08-05T01:34:54.643Z,22.67
2022-08-05T01:37:24.846Z,22.67
2022-08-05T01:39:47.083Z,22.57
2022-08-05T01:42:05.370Z,22.52
2022-08-05T01:44:22.655Z,22.47
2022-08-05T01:46:51.361Z,22.45
2022-08-05T01:49:23.352Z,22.47
2022-08-05T01:51:42.475Z,22.47
2022-08-05T01:54:09.918Z,22.43
2022-08-05T01:58:12.359Z,22.34
2022-08-05T01:59:03.935Z,22.36
2022-08-05T02:01:23.316Z,22.53
2022-08-05T02:03:42.422Z,22.49
2022-08-05T02:06:03.578Z,22.47
2022-08-05T02:08:40.974Z,22.35
2022-08-05T02:11:12.066Z,22.31
2022-08-05T02:13:36.446Z,22.23
2022-08-05T02:16:05.902Z,22.24
2022-08-05T02:18:31.053Z,22.33
2022-08-05T02:20:51.521Z,22.32
2022-08-05T02:23:10.029Z,22.38
2022-08-05T02:25:33.430Z,22.39
2022-08-05T02:28:08.732Z,22.32
2022-08-05T02:30:26.771Z,22.26
2022-08-05T02:32:44.029Z,22.21
2022-08-05T02:35:09.613Z,22.12
2022-08-05T02:37:31.992Z,22.10
2022-08-05T02:39:51.544Z,22.14
2022-08-05T02:42:09.533Z,22.09
2022-08-05T02:44:44.238Z,22.14
2022-08-05T02:47:01.564Z,22.21
2022-08-05T02:49:19.857Z,22.22
2022-08-05T02:52:03.749Z,22.20
2022-08-05T02:54:35.794Z,22.22
2022-08-05T02:56:53.165Z,22.20
2022-08-05T02:59:10.223Z,22.21
2022-08-05T03:01:27.898Z,22.27
2022-08-05T03:04:02.059Z,22.34
2022-08-05T03:06:55.569Z,22.33
2022-08-05T03:08:58.985Z,22.30
2022-08-05T03:11:54.545Z,22.26
2022-08-05T03:14:02.756Z,22.31
2022-08-05T03:16:20.905Z,22.38
2022-08-05T03:18:37.933Z,22.27
2022-08-05T03:20:59.224Z,22.24
2022-08-05T03:23:17.908Z,22.18
2022-08-05T03:26:30.537Z,22.19
2022-08-05T03:28:11.817Z,22.18
2022-08-05T03:30:33.929Z,22.14
2022-08-05T03:32:51.294Z,22.02
2022-08-05T03:35:09.083Z,22.07
2022-08-05T03:37:26.628Z,22.03
2022-08-05T03:39:47.421Z,22.00
2022-08-05T03:42:18.018Z,21.90
2022-08-05T03:44:35.050Z,21.86
2022-08-05T03:46:52.339Z,21.89
2022-08-05T03:49:09.362Z,21.90
2022-08-05T03:52:38.144Z,21.87
2022-08-05T03:55:51.093Z,21.79
2022-08-05T03:56:41.780Z,21.86
2022-08-05T03:58:59.037Z,21.89
2022-08-05T04:01:16.126Z,21.79
2022-08-05T04:03:38.009Z,21.73
2022-08-05T04:05:55.524Z,21.76
2022-08-05T04:08:30.235Z,21.69
2022-08-05T04:10:52.186Z,21.62
2022-08-05T04:13:09.616Z,21.60
2022-08-05T04:15:26.707Z,21.63
2022-08-05T04:17:57.247Z,21.61
2022-08-05T04:20:17.054Z,21.69
2022-08-05T04:22:34.113Z,21.75
2022-08-05T04:24:52.609Z,21.61
2022-08-05T04:27:11.062Z,21.53
2022-08-05T04:29:28.367Z,21.57
2022-08-05T04:31:48.280Z,21.52
2022-08-05T04:34:31.128Z,21.40
2022-08-05T04:36:45.634Z,21.39
2022-08-05T04:39:03.686Z,21.37
2022-08-05T04:41:34.060Z,21.33
2022-08-05T04:43:54.364Z,21.30
2022-08-05T04:46:11.943Z,21.26
2022-08-05T04:48:31.411Z,21.27
2022-08-05T04:51:01.547Z,21.41
2022-08-05T04:53:20.181Z,21.37
2022-08-05T04:56:32.376Z,21.31
2022-08-05T04:58:14.807Z,21.17
2022-08-05T05:00:38.747Z,21.17
2022-08-05T05:02:59.129Z,21.20
2022-08-05T05:05:28.281Z,21.28
2022-08-05T05:07:56.135Z,21.21
2022-08-05T05:10:13.717Z,21.22
2022-08-05T05:12:30.999Z,21.16
2022-08-05T05:14:50.642Z,21.10
2022-08-05T05:17:09.555Z,21.16
2022-08-05T05:19:36.171Z,21.21
2022-08-05T05:21:55.566Z,21.24
2022-08-05T05:24:12.712Z,21.22
2022-08-05T05:26:32.981Z,21.29
2022-08-05T05:28:50.446Z,21.42
2022-08-05T05:31:08.992Z,21.33
2022-08-05T05:33:26.990Z,21.25
2022-08-05T05:35:44.991Z,21.24
2022-08-05T05:38:02.506Z,21.19
2022-08-05T05:40:19.906Z,21.23
2022-08-05T05:42:36.851Z,21.25
2022-08-05T05:44:54.200Z,21.29
2022-08-05T05:47:21.612Z,21.34
2022-08-05T05:49:47.342Z,21.32
2022-08-05T05:52:28.425Z,21.29
2022-08-05T05:54:50.404Z,21.28
2022-08-05T05:57:13.832Z,21.38
2022-08-05T05:59:40.322Z,21.43
2022-08-05T06:01:58.217Z,21.46
2022-08-05T06:04:15.935Z,21.41
2022-08-05T06:06:34.932Z,21.49
2022-08-05T06:08:52.199Z,21.47
2022-08-05T06:11:11.703Z,21.44
2022-08-05T06:13:30.827Z,21.43
2022-08-05T06:16:29.067Z,21.52
2022-08-05T06:18:39.281Z,21.55
2022-08-05T06:20:57.508Z,21.51
2022-08-05T06:23:14.693Z,21.54
2022-08-05T06:26:12.583Z,21.50
2022-08-05T06:28:12.061Z,21.53
2022-08-05T06:30:39.951Z,21.46
2022-08-05T06:32:58.395Z,21.48
2022-08-05T06:36:03.059Z,21.53
2022-08-05T06:37:57.878Z,21.56
2022-08-05T06:40:18.569Z,21.58
2022-08-05T06:42:39.842Z,21.62
2022-08-05T06:44:57.329Z,21.58
2022-08-05T06:47:30.069Z,21.55
2022-08-05T06:50:01.983Z,21.62
2022-08-05T06:52:37.315Z,21.69
2022-08-05T06:54:55.263Z,21.77
2022-08-05T06:57:56.662Z,21.81
2022-08-05T06:59:57.953Z,21.84
2022-08-05T07:02:15.331Z,21.86
2022-08-05T07:04:40.041Z,21.89
2022-08-05T07:06:59.646Z,21.95
2022-08-05T07:09:16.956Z,21.98
2022-08-05T07:11:39.863Z,21.99
2022-08-05T07:13:59.923Z,21.95
2022-08-05T07:18:00.303Z,21.93
2022-08-05T07:18:54.336Z,21.91
2022-08-05T07:21:12.067Z,21.94
2022-08-05T07:23:29.799Z,21.96
2022-08-05T07:25:56.212Z,21.93
2022-08-05T07:28:17.206Z,21.87
2022-08-05T07:30:38.171Z,21.95
2022-08-05T07:32:57.395Z,21.92
2022-08-05T07:36:03.869Z,21.92
2022-08-05T07:37:52.915Z,22.00
2022-08-05T07:40:27.111Z,21.91
2022-08-05T07:42:47.329Z,21.92
2022-08-05T07:45:09.231Z,21.96
2022-08-05T07:47:26.391Z,21.99
2022-08-05T07:49:54.543Z,22.04
2022-08-05T07:52:11.697Z,22.03
2022-08-05T07:54:31.043Z,22.02
2022-08-05T07:57:01.988Z,22.01
2022-08-05T07:59:38.860Z,21.98
2022-08-05T08:01:58.522Z,21.90
2022-08-05T08:04:15.925Z,21.91
2022-08-05T08:06:33.003Z,21.92
2022-08-05T08:08:49.977Z,21.90
2022-08-05T08:11:09.001Z,22.02
2022-08-05T08:13:30.947Z,21.96
2022-08-05T08:16:50.038Z,22.01
2022-08-05T08:18:37.567Z,22.05
2022-08-05T08:21:02.474Z,22.02
2022-08-05T08:24:01.931Z,22.00
2022-08-05T08:25:59.732Z,21.96
2022-08-05T08:28:35.363Z,22.01
2022-08-05T08:30:52.939Z,21.96
2022-08-05T08:33:13.620Z,22.02
2022-08-05T08:35:34.725Z,21.97
2022-08-05T08:37:57.825Z,21.95
2022-08-05T08:40:14.795Z,21.95
2022-08-05T08:42:50.434Z,21.97
2022-08-05T08:45:19.237Z,21.99
2022-08-05T08:48:06.233Z,22.08
2022-08-05T08:50:30.131Z,22.16
2022-08-05T08:52:51.669Z,22.21
2022-08-05T08:55:11.128Z,22.11
2022-08-05T08:57:48.300Z,22.14
2022-08-05T09:00:07.784Z,22.09
2022-08-05T09:02:26.953Z,22.13
2022-08-05T09:04:57.766Z,22.21
2022-08-05T09:07:28.931Z,22.26
2022-08-05T09:09:46.238Z,22.30
2022-08-05T09:12:20.068Z,22.34
2022-08-05T09:14:56.816Z,22.23
2022-08-05T09:17:40.486Z,22.17
2022-08-05T09:20:01.403Z,22.18
2022-08-05T09:22:30.802Z,22.26
2022-08-05T09:24:48.731Z,22.32
2022-08-05T09:27:06.038Z,22.27
2022-08-05T09:29:30.908Z,22.36
2022-08-05T09:32:40.331Z,22.43
2022-08-05T09:34:26.007Z,22.43
2022-08-05T09:36:54.084Z,22.36
2022-08-05T09:39:16.494Z,22.52
2022-08-05T09:41:38.263Z,22.49
2022-08-05T09:43:56.092Z,22.60
2022-08-05T09:46:15.529Z,22.80
2022-08-05T09:48:32.504Z,22.87
2022-08-05T09:50:49.843Z,22.95
2022-08-05T09:53:06.778Z,22.99
2022-08-05T09:55:56.563Z,23.24
2022-08-05T09:58:03.424Z,23.21
2022-08-05T10:00:20.365Z,23.29
2022-08-05T10:02:41.739Z,23.37
2022-08-05T10:04:59.047Z,23.37
2022-08-05T10:07:20.865Z,23.35
2022-08-05T10:10:13.738Z,23.44
2022-08-05T10:12:33.747Z,23.35
2022-08-05T10:14:51.085Z,23.40
2022-08-05T10:17:38.006Z,23.29
2022-08-05T10:20:03.702Z,23.27
2022-08-05T10:22:29.532Z,23.19
2022-08-05T10:24:47.447Z,23.13
2022-08-05T10:27:07.779Z,23.06
2022-08-05T10:30:06.676Z,23.08
2022-08-05T10:32:53.604Z,23.27
2022-08-05T10:34:40.877Z,23.42
2022-08-05T10:36:58.287Z,23.67
2022-08-05T10:39:25.209Z,24.13
2022-08-05T10:41:52.732Z,24.44
2022-08-05T10:44:09.799Z,24.84
2022-08-05T10:46:26.804Z,24.90
2022-08-05T10:48:56.551Z,25.04
2022-08-05T10:51:21.814Z,25.17
2022-08-05T10:53:39.857Z,25.33
2022-08-05T10:56:05.168Z,25.60
2022-08-05T10:58:35.757Z,25.64
2022-08-05T11:00:54.971Z,25.82
2022-08-05T11:03:23.683Z,25.91
2022-08-05T11:05:43.457Z,26.10
2022-08-05T11:08:12.715Z,26.25
2022-08-05T11:10:38.478Z,26.33
2022-08-05T11:13:07.549Z,26.68
2022-08-05T11:15:59.294Z,26.83
2022-08-05T11:18:04.133Z,26.86
2022-08-05T11:20:24.090Z,26.89
2022-08-05T11:22:43.859Z,26.94
2022-08-05T11:26:03.510Z,26.67
2022-08-05T11:27:51.347Z,26.70
2022-08-05T11:30:09.121Z,26.73
2022-08-05T11:32:27.591Z,26.73
2022-08-05T11:34:47.473Z,26.97
2022-08-05T11:38:36.951Z,27.19
2022-08-05T11:39:48.215Z,27.21
2022-08-05T11:42:06.720Z,27.34
2022-08-05T11:44:52.730Z,27.24
2022-08-05T11:47:10.945Z,27.21
2022-08-05T11:49:29.190Z,27.07
2022-08-05T11:51:51.242Z,26.89
2022-08-05T11:54:09.672Z,26.83
2022-08-05T11:56:40.581Z,26.71
2022-08-05T11:58:58.404Z,26.36
2022-08-05T12:01:19.121Z,26.02
2022-08-05T12:03:36.366Z,25.91
2022-08-05T12:05:53.765Z,25.80
2022-08-05T12:08:17.975Z,25.58
2022-08-05T12:10:43.589Z,25.58
2022-08-05T12:13:03.587Z,25.98
2022-08-05T12:15:38.494Z,26.28
2022-08-05T12:18:02.914Z,26.28
2022-08-05T12:20:26.466Z,26.40
2022-08-05T12:22:46.720Z,26.18
2022-08-05T12:25:09.057Z,26.20
2022-08-05T12:27:32.956Z,26.10
2022-08-05T12:29:56.773Z,25.91
2022-08-05T12:32:14.342Z,25.90
2022-08-05T12:34:31.706Z,25.80
2022-08-05T12:36:49.959Z,25.72
2022-08-05T12:39:07.129Z,25.62
2022-08-05T12:41:24.225Z,25.53
2022-08-05T12:43:52.590Z,25.34
2022-08-05T12:46:12.336Z,25.22
2022-08-05T12:48:32.568Z,25.07
2022-08-05T12:50:50.098Z,25.08
2022-08-05T12:53:08.744Z,24.92
2022-08-05T12:55:28.861Z,24.85
2022-08-05T12:58:52.568Z,24.75
2022-08-05T13:01:59.711Z,24.59
2022-08-05T13:03:12.290Z,24.61
2022-08-05T13:05:37.504Z,24.51
2022-08-05T13:07:59.186Z,24.55
2022-08-05T13:10:19.665Z,24.49
2022-08-05T13:12:42.686Z,24.44
2022-08-05T13:15:16.306Z,24.53
2022-08-05T13:17:41.725Z,24.58
2022-08-05T13:19:59.552Z,24.76
2022-08-05T13:22:28.325Z,24.91
2022-08-05T13:24:57.246Z,25.22
2022-08-05T13:27:16.931Z,25.66
2022-08-05T13:29:40.358Z,25.84
2022-08-05T13:32:21.436Z,25.93
2022-08-05T13:34:48.051Z,25.93
2022-08-05T13:37:05.810Z,25.79
2022-08-05T13:40:14.996Z,25.69
2022-08-05T13:42:01.622Z,25.47
2022-08-05T13:44:20.000Z,25.28
2022-08-05T13:46:50.641Z,25.29
2022-08-05T13:49:13.953Z,25.34
2022-08-05T13:51:36.394Z,25.29
2022-08-05T13:53:56.555Z,25.40
2022-08-05T13:56:18.075Z,25.52
2022-08-05T13:58:36.143Z,25.48
2022-08-05T14:00:57.661Z,25.61
2022-08-05T14:03:15.162Z,25.43
2022-08-05T14:06:24.406Z,25.41
2022-08-05T14:08:20.464Z,25.03
2022-08-05T14:10:44.820Z,24.87
2022-08-05T14:13:02.112Z,24.84
2022-08-05T14:16:04.985Z,24.74
2022-08-05T14:17:59.750Z,24.61
2022-08-05T14:20:18.450Z,24.57
2022-08-05T14:22:35.639Z,24.27
2022-08-05T14:24:53.316Z,24.26
2022-08-05T14:27:18.186Z,24.39
2022-08-05T14:29:35.737Z,24.06
2022-08-05T14:32:03.777Z,24.09
2022-08-05T14:34:30.319Z,24.03
2022-08-05T14:36:52.612Z,24.07
2022-08-05T14:39:11.021Z,24.08
2022-08-05T14:41:28.115Z,24.20
2022-08-05T14:44:01.976Z,24.34
2022-08-05T14:46:22.663Z,24.43
2022-08-05T14:48:49.252Z,24.52
2022-08-05T14:51:08.492Z,24.71
2022-08-05T14:53:27.050Z,24.73
2022-08-05T14:55:52.064Z,24.77
2022-08-05T14:58:11.857Z,24.74
2022-08-05T15:00:32.546Z,24.62
2022-08-05T15:02:49.678Z,24.55
2022-08-05T15:05:08.733Z,24.38
2022-08-05T15:08:06.113Z,24.37
2022-08-05T15:10:09.836Z,24.32
2022-08-05T15:12:27.640Z,24.38
2022-08-05T15:14:50.579Z,24.51
2022-08-05T15:17:09.962Z,24.49
2022-08-05T15:19:48.887Z,24.28
2022-08-05T15:22:06.528Z,24.29
2022-08-05T15:24:23.521Z,24.45
2022-08-05T15:26:41.454Z,24.30
2022-08-05T15:29:02.466Z,24.16
2022-08-05T15:31:19.692Z,24.12
2022-08-05T15:34:18.291Z,24.13
2022-08-05T15:36:17.389Z,24.14
2022-08-05T15:38:44.724Z,23.95
2022-08-05T15:41:22.649Z,23.86
2022-08-05T15:43:45.993Z,23.84
2022-08-05T15:46:04.635Z,23.85
2022-08-05T15:48:21.753Z,23.92
2022-08-05T15:50:38.740Z,23.98
2022-08-05T15:52:57.653Z,24.00
2022-08-05T15:55:25.069Z,24.00
2022-08-05T15:57:57.365Z,24.01
2022-08-05T16:00:16.873Z,24.06
2022-08-05T16:02:43.555Z,24.11
2022-08-05T16:05:00.898Z,24.19
2022-08-05T16:07:18.208Z,24.17
2022-08-05T16:09:35.193Z,24.16
2022-08-05T16:11:54.047Z,24.12
2022-08-05T16:14:17.237Z,24.09
2022-08-05T16:16:34.774Z,24.12
2022-08-05T16:18:52.773Z,24.14
2022-08-05T16:21:11.027Z,24.39
2022-08-05T16:23:51.012Z,24.64
2022-08-05T16:26:08.498Z,25.06
2022-08-05T16:28:25.543Z,25.27
2022-08-05T16:30:44.877Z,25.37
2022-08-05T16:33:02.250Z,25.42
2022-08-05T16:35:19.264Z,25.33
2022-08-05T16:38:03.378Z,25.29
2022-08-05T16:40:26.669Z,25.10
2022-08-05T16:42:46.938Z,24.92
2022-08-05T16:46:07.855Z,24.79
2022-08-05T16:47:53.324Z,24.66
2022-08-05T16:50:15.597Z,24.69
2022-08-05T16:52:34.175Z,24.66
2022-08-05T16:54:52.587Z,24.74
2022-08-05T16:57:22.078Z,24.88
2022-08-05T17:00:00.237Z,24.96
2022-08-05T17:02:18.191Z,24.84
2022-08-05T17:04:35.551Z,24.67
2022-08-05T17:07:00.513Z,24.57
2022-08-05T17:09:18.437Z,24.54
2022-08-05T17:11:48.726Z,24.51
2022-08-05T17:14:06.623Z,24.54
2022-08-05T17:16:32.598Z,24.59
2022-08-05T17:18:50.423Z,24.55
2022-08-05T17:21:07.807Z,24.61
2022-08-05T17:24:04.503Z,24.60
2022-08-05T17:26:02.383Z,24.62
2022-08-05T17:28:19.531Z,24.65
2022-08-05T17:30:50.403Z,24.68
2022-08-05T17:33:08.855Z,24.62
2022-08-05T17:35:25.994Z,24.54
2022-08-05T17:37:50.649Z,24.58
2022-08-05T17:40:10.227Z,24.50
2022-08-05T17:42:30.056Z,24.38
2022-08-05T17:44:50.357Z,24.27
2022-08-05T17:47:08.734Z,24.16
2022-08-05T17:49:28.852Z,24.13
2022-08-05T17:52:06.055Z,24.08
2022-08-05T17:54:23.262Z,24.08
2022-08-05T17:56:40.578Z,23.98
2022-08-05T17:59:02.061Z,23.95
2022-08-05T18:01:19.632Z,23.98
2022-08-05T18:06:16.091Z,23.74
2022-08-05T18:08:34.578Z,23.70
2022-08-05T18:10:51.669Z,23.53
2022-08-05T18:13:12.350Z,23.56
2022-08-05T18:15:31.167Z,23.43
2022-08-05T18:17:58.890Z,23.36
2022-08-05T18:20:29.226Z,23.15
2022-08-05T18:22:54.708Z,23.03
2022-08-05T18:25:17.052Z,22.69
2022-08-05T18:27:34.207Z,22.54
2022-08-05T18:29:54.922Z,22.54
2022-08-05T18:32:12.688Z,22.53
2022-08-05T18:34:41.014Z,22.42
2022-08-05T18:36:58.479Z,22.42
2022-08-05T18:39:41.849Z,22.23
2022-08-05T18:41:55.542Z,22.21
2022-08-05T18:44:33.233Z,22.20
2022-08-05T18:46:52.895Z,22.04
2022-08-05T18:49:09.888Z,21.93
2022-08-05T18:52:06.204Z,21.90
2022-08-05T18:54:05.498Z,21.72
2022-08-05T18:56:25.210Z,21.64
2022-08-05T18:58:42.978Z,21.50
2022-08-05T19:01:01.298Z,21.43
2022-08-05T19:03:18.477Z,21.31
2022-08-05T19:06:12.306Z,21.25
2022-08-05T19:08:32.694Z,21.18
2022-08-05T19:10:50.079Z,21.09
2022-08-05T19:13:12.268Z,21.00
2022-08-05T19:15:57.292Z,20.93
2022-08-05T19:18:20.872Z,20.81
2022-08-05T19:20:41.440Z,20.67
2022-08-05T19:23:00.356Z,20.56
2022-08-05T19:25:21.565Z,20.50
2022-08-05T19:27:46.744Z,20.33
2022-08-05T19:30:07.132Z,20.27
2022-08-05T19:32:27.890Z,20.18
2022-08-05T19:34:55.145Z,20.08
2022-08-05T19:37:13.021Z,20.02
2022-08-05T19:39:32.005Z,19.94
2022-08-05T19:42:07.957Z,19.86
2022-08-05T19:44:29.204Z,19.82
2022-08-05T19:46:47.161Z,19.77
2022-08-05T19:49:08.311Z,19.63
2022-08-05T19:52:05.861Z,19.51
2022-08-05T19:54:21.894Z,19.47
2022-08-05T19:56:47.756Z,19.37
2022-08-05T19:59:21.408Z,19.26
2022-08-05T20:01:43.739Z,19.19
2022-08-05T20:04:00.739Z,19.11
2022-08-05T20:06:29.088Z,19.04
2022-08-05T20:08:47.602Z,18.93
2022-08-05T20:11:05.852Z,18.89
2022-08-05T20:13:54.426Z,18.88
2022-08-05T20:15:59.874Z,18.88
2022-08-05T20:18:32.623Z,18.81
2022-08-05T20:20:51.256Z,18.72
2022-08-05T20:23:12.673Z,18.67
2022-08-05T20:25:33.874Z,18.66
2022-08-05T20:27:56.983Z,18.60
2022-08-05T20:30:15.611Z,18.53
2022-08-05T20:32:36.702Z,18.50
2022-08-05T20:35:02.446Z,18.45
2022-08-05T20:38:06.669Z,18.41
2022-08-05T20:39:58.239Z,18.38
2022-08-05T20:42:15.723Z,18.32
2022-08-05T20:44:38.788Z,18.38
2022-08-05T20:46:56.921Z,18.34
2022-08-05T20:49:13.997Z,18.30
2022-08-05T20:51:32.080Z,18.27
2022-08-05T20:53:56.215Z,18.19
2022-08-05T20:56:15.238Z,18.11
2022-08-05T20:58:45.283Z,18.10
2022-08-05T21:01:02.494Z,18.04
2022-08-05T21:03:21.731Z,18.02
2022-08-05T21:05:53.582Z,17.95
2022-08-05T21:08:11.260Z,17.84
2022-08-05T21:10:28.451Z,17.82
2022-08-05T21:12:58.123Z,17.72
2022-08-05T21:15:22.669Z,17.65
2022-08-05T21:17:39.834Z,17.58
2022-08-05T21:19:56.866Z,17.48
2022-08-05T21:22:17.614Z,17.41
2022-08-05T21:24:35.061Z,17.33
2022-08-05T21:26:58.238Z,17.33
2022-08-05T21:29:16.798Z,17.24
2022-08-05T21:31:41.274Z,17.14
2022-08-05T21:34:00.134Z,17.08
2022-08-05T21:36:19.235Z,17.00
2022-08-05T21:38:47.290Z,16.91
2022-08-05T21:41:04.478Z,16.87
2022-08-05T21:43:24.802Z,16.87
2022-08-05T21:45:56.566Z,16.82
2022-08-05T21:48:15.183Z,16.75
2022-08-05T21:50:33.597Z,16.68
2022-08-05T21:52:50.855Z,16.65
2022-08-05T21:55:07.987Z,16.56
2022-08-05T21:57:32.898Z,16.50
2022-08-05T22:00:05.369Z,16.48
2022-08-05T22:02:24.357Z,16.44
2022-08-05T22:04:41.405Z,16.45
2022-08-05T22:06:59.278Z,16.44
2022-08-05T22:09:21.149Z,16.37
2022-08-05T22:11:40.895Z,16.34
2022-08-05T22:14:06.587Z,16.29
2022-08-05T22:16:51.195Z,16.22
2022-08-05T22:19:57.300Z,16.15
2022-08-05T22:21:46.899Z,16.15
2022-08-05T22:24:09.080Z,16.13
2022-08-05T22:26:30.348Z,16.13
2022-08-05T22:28:47.389Z,16.07
2022-08-05T22:31:06.809Z,16.06
2022-08-05T22:33:57.348Z,15.98
2022-08-05T22:36:02.098Z,15.96
2022-08-05T22:38:20.184Z,15.87
2022-08-05T22:40:37.435Z,15.80
2022-08-05T22:42:58.237Z,15.79
2022-08-05T22:45:15.531Z,15.80
2022-08-05T22:47:33.666Z,15.77
2022-08-05T22:50:20.984Z,15.72
2022-08-05T22:52:32.414Z,15.62
2022-08-05T22:54:51.640Z,15.56
2022-08-05T22:57:08.748Z,15.56
2022-08-05T22:59:44.066Z,15.56
2022-08-05T23:02:06.221Z,15.52
2022-08-05T23:04:24.882Z,15.54
2022-08-05T23:06:42.552Z,15.48
2022-08-05T23:09:27.212Z,15.41
2022-08-05T23:11:36.707Z,15.39
2022-08-05T23:13:54.218Z,15.43
2022-08-05T23:16:11.634Z,15.42
2022-08-05T23:18:29.756Z,15.50
2022-08-05T23:20:53.133Z,15.51
2022-08-05T23:23:11.841Z,15.47
2022-08-05T23:25:55.015Z,15.52
2022-08-05T23:28:07.677Z,15.54
2022-08-05T23:30:27.094Z,15.53
2022-08-05T23:32:46.404Z,15.47
2022-08-05T23:35:06.413Z,15.40
2022-08-05T23:37:23.543Z,15.34
2022-08-05T23:39:53.598Z,15.23
2022-08-05T23:42:14.447Z,15.10
2022-08-05T23:44:31.751Z,15.06
2022-08-05T23:46:49.839Z,14.94
2022-08-05T23:49:15.816Z,14.99
2022-08-05T23:51:33.721Z,15.00
2022-08-05T23:53:51.182Z,15.00
2022-08-05T23:56:20.145Z,14.92
2022-08-05T23:58:44.669Z,14.86
